Big Spring, Texas
Current Conditions -  °F | °C
As of 1:55 PM on Tuesday 21 Oct 2014 (Local Time) from KBPG Reporting Station
Overcast Overcast  
Wind Chill: 74°   Ceiling: 5500
Heat Index: 74°   Visibility: 10mi
Dew Point: 56°   Wind: 0mph
Humidity: 54%   Direction: NA
Pressure: 30.1"   Gusts: NA
Location:  32.25°N, 101.47°W
Report Text: KBPG 211855Z AUTO 00000KT 10SM SCT043 OVC055 23/14 A3010 RMK AO2 T02330135
Loading
Personal Weather Stations






























Interactive Weather Map
Tropical Storm Tracking
New forecast layout! Learn more

10-Day Weather Forecast

Advertisements
Track Severe Weather on mobile